Terminal Aerodrome Forecast
Issued by NWS

Home | Current Version | Previous Version | Text Only | Print | Product List | Glossary On
Versions: 1 2 3 4 5 6 7 8 9 10 11 12 13 14 15 16 17 18 19 20 21
652
FTUS46 KPDT 090526
TAFALW
TAF
KALW 090526Z 0906/1006 VRB05KT 5SM -SHSN BR BKN030
     FM092100 24006KT 5SM -SN BR OVC025=

USA.gov is the U.S. government's official web portal to all federal, state and local government web resources and services.